sensor_id;sensor_type;location;lat;lon;timestamp;P1;durP1;ratioP1;P2;durP2;ratioP2
17714;SDS011;8977;50.902;4.314;2022-12-10T00:00:34;33.70;;;19.70;;
17714;SDS011;8977;50.902;4.314;2022-12-10T00:03:03;35.53;;;20.80;;
17714;SDS011;8977;50.902;4.314;2022-12-10T00:05:30;33.83;;;18.73;;
17714;SDS011;8977;50.902;4.314;2022-12-10T00:07:59;36.33;;;20.23;;
17714;SDS011;8977;50.902;4.314;2022-12-10T00:10:26;40.93;;;19.47;;
17714;SDS011;8977;50.902;4.314;2022-12-10T00:12:53;37.37;;;21.33;;
17714;SDS011;8977;50.902;4.314;2022-12-10T00:15:20;42.13;;;21.03;;
17714;SDS011;8977;50.902;4.314;2022-12-10T00:17:46;35.93;;;21.03;;
17714;SDS011;8977;50.902;4.314;2022-12-10T00:20:15;38.23;;;22.50;;
17714;SDS011;8977;50.902;4.314;2022-12-10T00:22:42;36.13;;;20.17;;
17714;SDS011;8977;50.902;4.314;2022-12-10T00:25:09;36.37;;;22.83;;
17714;SDS011;8977;50.902;4.314;2022-12-10T00:27:36;35.63;;;21.57;;
17714;SDS011;8977;50.902;4.314;2022-12-10T00:30:03;35.80;;;20.90;;
17714;SDS011;8977;50.902;4.314;2022-12-10T00:32:30;34.47;;;19.73;;
17714;SDS011;8977;50.902;4.314;2022-12-10T00:34:57;38.00;;;20.33;;
17714;SDS011;8977;50.902;4.314;2022-12-10T00:37:25;36.33;;;21.03;;
17714;SDS011;8977;50.902;4.314;2022-12-10T00:39:52;37.13;;;21.53;;
17714;SDS011;8977;50.902;4.314;2022-12-10T00:42:19;38.60;;;21.67;;
17714;SDS011;8977;50.902;4.314;2022-12-10T00:44:46;35.07;;;20.43;;
17714;SDS011;8977;50.902;4.314;2022-12-10T00:47:13;38.37;;;21.47;;
17714;SDS011;8977;50.902;4.314;2022-12-10T00:49:40;41.03;;;22.33;;
17714;SDS011;8977;50.902;4.314;2022-12-10T00:52:07;39.63;;;22.00;;
17714;SDS011;8977;50.902;4.314;2022-12-10T00:54:35;41.00;;;23.67;;
17714;SDS011;8977;50.902;4.314;2022-12-10T00:57:02;41.27;;;23.10;;
17714;SDS011;8977;50.902;4.314;2022-12-10T00:59:29;40.77;;;23.27;;
17714;SDS011;8977;50.902;4.314;2022-12-10T01:01:56;38.87;;;22.77;;
17714;SDS011;8977;50.902;4.314;2022-12-10T01:04:23;35.30;;;20.80;;
17714;SDS011;8977;50.902;4.314;2022-12-10T01:06:50;38.20;;;20.67;;
17714;SDS011;8977;50.902;4.314;2022-12-10T01:09:19;37.17;;;21.73;;
17714;SDS011;8977;50.902;4.314;2022-12-10T01:11:49;36.13;;;21.03;;
17714;SDS011;8977;50.902;4.314;2022-12-10T01:14:18;37.93;;;22.43;;
17714;SDS011;8977;50.902;4.314;2022-12-10T01:16:47;40.03;;;21.97;;
17714;SDS011;8977;50.902;4.314;2022-12-10T01:19:14;41.43;;;23.33;;
17714;SDS011;8977;50.902;4.314;2022-12-10T01:21:41;43.37;;;24.50;;
17714;SDS011;8977;50.902;4.314;2022-12-10T01:24:08;39.70;;;23.50;;
17714;SDS011;8977;50.902;4.314;2022-12-10T01:26:35;42.87;;;24.13;;
17714;SDS011;8977;50.902;4.314;2022-12-10T01:29:06;42.67;;;23.57;;
17714;SDS011;8977;50.902;4.314;2022-12-10T01:31:34;41.83;;;24.97;;
17714;SDS011;8977;50.902;4.314;2022-12-10T01:34:04;42.83;;;24.60;;
17714;SDS011;8977;50.902;4.314;2022-12-10T01:36:33;42.30;;;24.40;;
17714;SDS011;8977;50.902;4.314;2022-12-10T01:39:03;43.23;;;23.97;;
17714;SDS011;8977;50.902;4.314;2022-12-10T01:41:31;41.13;;;24.13;;
17714;SDS011;8977;50.902;4.314;2022-12-10T01:44:02;43.73;;;23.60;;
17714;SDS011;8977;50.902;4.314;2022-12-10T01:46:43;42.27;;;24.13;;
17714;SDS011;8977;50.902;4.314;2022-12-10T01:49:13;45.13;;;25.50;;
17714;SDS011;8977;50.902;4.314;2022-12-10T01:51:43;43.70;;;24.63;;
17714;SDS011;8977;50.902;4.314;2022-12-10T01:54:12;44.67;;;24.90;;
17714;SDS011;8977;50.902;4.314;2022-12-10T01:56:41;43.70;;;25.57;;
17714;SDS011;8977;50.902;4.314;2022-12-10T01:59:11;41.73;;;23.47;;
17714;SDS011;8977;50.902;4.314;2022-12-10T02:01:40;43.10;;;25.40;;
17714;SDS011;8977;50.902;4.314;2022-12-10T02:04:20;39.90;;;23.73;;
17714;SDS011;8977;50.902;4.314;2022-12-10T02:06:54;42.57;;;23.63;;
17714;SDS011;8977;50.902;4.314;2022-12-10T02:09:27;41.87;;;24.47;;
17714;SDS011;8977;50.902;4.314;2022-12-10T02:12:05;42.17;;;24.30;;
17714;SDS011;8977;50.902;4.314;2022-12-10T02:14:39;41.57;;;23.97;;
17714;SDS011;8977;50.902;4.314;2022-12-10T02:17:14;45.87;;;25.13;;
17714;SDS011;8977;50.902;4.314;2022-12-10T02:19:56;42.20;;;24.43;;
17714;SDS011;8977;50.902;4.314;2022-12-10T02:22:28;39.40;;;22.67;;
17714;SDS011;8977;50.902;4.314;2022-12-10T02:24:57;37.57;;;22.43;;
17714;SDS011;8977;50.902;4.314;2022-12-10T02:27:26;40.50;;;22.87;;
17714;SDS011;8977;50.902;4.314;2022-12-10T02:29:59;37.60;;;22.43;;
17714;SDS011;8977;50.902;4.314;2022-12-10T02:32:29;37.87;;;23.63;;
17714;SDS011;8977;50.902;4.314;2022-12-10T02:35:00;38.50;;;23.30;;
17714;SDS011;8977;50.902;4.314;2022-12-10T02:37:31;39.37;;;23.70;;
17714;SDS011;8977;50.902;4.314;2022-12-10T02:40:05;42.77;;;24.47;;
17714;SDS011;8977;50.902;4.314;2022-12-10T02:42:36;45.23;;;25.40;;
17714;SDS011;8977;50.902;4.314;2022-12-10T02:45:07;38.67;;;23.30;;
17714;SDS011;8977;50.902;4.314;2022-12-10T02:47:36;43.03;;;24.83;;
17714;SDS011;8977;50.902;4.314;2022-12-10T02:50:05;42.70;;;26.20;;
17714;SDS011;8977;50.902;4.314;2022-12-10T02:52:35;44.13;;;25.90;;
17714;SDS011;8977;50.902;4.314;2022-12-10T02:55:02;43.77;;;26.37;;
17714;SDS011;8977;50.902;4.314;2022-12-10T02:57:36;47.17;;;27.20;;
17714;SDS011;8977;50.902;4.314;2022-12-10T03:00:11;48.73;;;27.40;;
17714;SDS011;8977;50.902;4.314;2022-12-10T03:02:46;49.43;;;27.50;;
17714;SDS011;8977;50.902;4.314;2022-12-10T03:05:36;47.77;;;26.57;;
17714;SDS011;8977;50.902;4.314;2022-12-10T03:08:10;42.20;;;25.80;;
17714;SDS011;8977;50.902;4.314;2022-12-10T03:10:42;44.80;;;26.13;;
17714;SDS011;8977;50.902;4.314;2022-12-10T03:13:20;45.67;;;25.80;;
17714;SDS011;8977;50.902;4.314;2022-12-10T03:15:53;50.47;;;27.07;;
17714;SDS011;8977;50.902;4.314;2022-12-10T03:18:21;51.10;;;28.03;;
17714;SDS011;8977;50.902;4.314;2022-12-10T03:20:51;49.03;;;26.63;;
17714;SDS011;8977;50.902;4.314;2022-12-10T03:23:20;46.90;;;26.27;;
17714;SDS011;8977;50.902;4.314;2022-12-10T03:25:48;48.27;;;27.23;;
17714;SDS011;8977;50.902;4.314;2022-12-10T03:28:16;42.30;;;25.27;;
17714;SDS011;8977;50.902;4.314;2022-12-10T03:30:45;51.33;;;27.30;;
17714;SDS011;8977;50.902;4.314;2022-12-10T03:33:16;47.07;;;26.27;;
17714;SDS011;8977;50.902;4.314;2022-12-10T03:35:43;51.97;;;26.23;;
17714;SDS011;8977;50.902;4.314;2022-12-10T03:38:11;47.80;;;26.83;;
17714;SDS011;8977;50.902;4.314;2022-12-10T03:40:42;45.57;;;26.00;;
17714;SDS011;8977;50.902;4.314;2022-12-10T03:43:11;48.43;;;26.77;;
17714;SDS011;8977;50.902;4.314;2022-12-10T03:45:39;49.03;;;26.10;;
17714;SDS011;8977;50.902;4.314;2022-12-10T03:48:09;51.37;;;25.97;;
17714;SDS011;8977;50.902;4.314;2022-12-10T03:50:40;44.93;;;24.87;;
17714;SDS011;8977;50.902;4.314;2022-12-10T03:53:07;51.83;;;27.20;;
17714;SDS011;8977;50.902;4.314;2022-12-10T03:55:35;49.57;;;27.17;;
17714;SDS011;8977;50.902;4.314;2022-12-10T03:58:02;51.97;;;28.07;;
17714;SDS011;8977;50.902;4.314;2022-12-10T04:00:29;50.43;;;26.37;;
17714;SDS011;8977;50.902;4.314;2022-12-10T04:02:56;47.90;;;24.97;;
17714;SDS011;8977;50.902;4.314;2022-12-10T04:05:23;52.87;;;27.60;;
17714;SDS011;8977;50.902;4.314;2022-12-10T04:07:51;50.53;;;26.13;;
17714;SDS011;8977;50.902;4.314;2022-12-10T04:10:18;54.17;;;25.73;;
17714;SDS011;8977;50.902;4.314;2022-12-10T04:12:45;55.67;;;27.03;;
17714;SDS011;8977;50.902;4.314;2022-12-10T04:15:33;50.03;;;26.40;;
17714;SDS011;8977;50.902;4.314;2022-12-10T04:18:21;49.37;;;26.07;;
17714;SDS011;8977;50.902;4.314;2022-12-10T04:20:51;50.37;;;26.80;;
17714;SDS011;8977;50.902;4.314;2022-12-10T04:23:36;52.40;;;27.23;;
17714;SDS011;8977;50.902;4.314;2022-12-10T04:26:21;52.03;;;25.87;;
17714;SDS011;8977;50.902;4.314;2022-12-10T04:29:05;55.77;;;25.60;;
17714;SDS011;8977;50.902;4.314;2022-12-10T04:31:33;53.83;;;26.27;;
17714;SDS011;8977;50.902;4.314;2022-12-10T04:34:00;54.37;;;28.63;;
17714;SDS011;8977;50.902;4.314;2022-12-10T04:36:27;50.63;;;25.17;;
17714;SDS011;8977;50.902;4.314;2022-12-10T04:38:55;49.80;;;26.37;;
17714;SDS011;8977;50.902;4.314;2022-12-10T04:41:22;52.87;;;27.17;;
17714;SDS011;8977;50.902;4.314;2022-12-10T04:43:49;51.10;;;26.33;;
17714;SDS011;8977;50.902;4.314;2022-12-10T04:46:16;53.10;;;27.50;;
17714;SDS011;8977;50.902;4.314;2022-12-10T04:48:42;53.07;;;26.60;;
17714;SDS011;8977;50.902;4.314;2022-12-10T04:51:09;52.70;;;27.43;;
17714;SDS011;8977;50.902;4.314;2022-12-10T04:53:36;58.27;;;28.27;;
17714;SDS011;8977;50.902;4.314;2022-12-10T04:56:05;55.80;;;28.47;;
17714;SDS011;8977;50.902;4.314;2022-12-10T04:58:33;56.73;;;29.07;;
17714;SDS011;8977;50.902;4.314;2022-12-10T05:01:02;58.10;;;28.30;;
17714;SDS011;8977;50.902;4.314;2022-12-10T05:03:30;52.10;;;27.80;;
17714;SDS011;8977;50.902;4.314;2022-12-10T05:06:00;61.97;;;28.60;;
17714;SDS011;8977;50.902;4.314;2022-12-10T05:08:27;56.80;;;27.60;;
17714;SDS011;8977;50.902;4.314;2022-12-10T05:10:54;51.00;;;27.20;;
17714;SDS011;8977;50.902;4.314;2022-12-10T05:13:22;54.97;;;29.00;;
17714;SDS011;8977;50.902;4.314;2022-12-10T05:15:49;56.37;;;28.67;;
17714;SDS011;8977;50.902;4.314;2022-12-10T05:18:16;53.73;;;27.37;;
17714;SDS011;8977;50.902;4.314;2022-12-10T05:20:43;52.33;;;26.63;;
17714;SDS011;8977;50.902;4.314;2022-12-10T05:23:10;51.93;;;27.00;;
17714;SDS011;8977;50.902;4.314;2022-12-10T05:25:57;52.23;;;26.50;;
17714;SDS011;8977;50.902;4.314;2022-12-10T05:28:27;53.30;;;26.47;;
17714;SDS011;8977;50.902;4.314;2022-12-10T05:30:56;52.17;;;27.10;;
17714;SDS011;8977;50.902;4.314;2022-12-10T05:33:23;49.57;;;25.20;;
17714;SDS011;8977;50.902;4.314;2022-12-10T05:35:52;52.80;;;26.23;;
17714;SDS011;8977;50.902;4.314;2022-12-10T05:38:20;48.70;;;25.80;;
17714;SDS011;8977;50.902;4.314;2022-12-10T05:40:47;57.67;;;25.27;;
17714;SDS011;8977;50.902;4.314;2022-12-10T05:43:14;48.63;;;24.93;;
17714;SDS011;8977;50.902;4.314;2022-12-10T05:45:42;49.00;;;25.00;;
17714;SDS011;8977;50.902;4.314;2022-12-10T05:48:09;48.53;;;24.67;;
17714;SDS011;8977;50.902;4.314;2022-12-10T05:50:36;47.87;;;23.80;;
17714;SDS011;8977;50.902;4.314;2022-12-10T05:53:03;46.27;;;24.20;;
17714;SDS011;8977;50.902;4.314;2022-12-10T05:55:30;42.47;;;23.30;;
17714;SDS011;8977;50.902;4.314;2022-12-10T05:57:58;47.03;;;24.87;;
17714;SDS011;8977;50.902;4.314;2022-12-10T06:00:26;44.23;;;23.83;;
17714;SDS011;8977;50.902;4.314;2022-12-10T06:02:55;46.23;;;22.87;;
17714;SDS011;8977;50.902;4.314;2022-12-10T06:05:22;44.17;;;23.43;;
17714;SDS011;8977;50.902;4.314;2022-12-10T06:07:49;46.60;;;24.40;;
17714;SDS011;8977;50.902;4.314;2022-12-10T06:10:16;49.30;;;24.17;;
17714;SDS011;8977;50.902;4.314;2022-12-10T06:12:43;46.97;;;24.00;;
17714;SDS011;8977;50.902;4.314;2022-12-10T06:15:10;45.97;;;23.87;;
17714;SDS011;8977;50.902;4.314;2022-12-10T06:17:37;53.10;;;23.50;;
17714;SDS011;8977;50.902;4.314;2022-12-10T06:20:06;45.77;;;23.03;;
17714;SDS011;8977;50.902;4.314;2022-12-10T06:22:33;52.37;;;24.80;;
17714;SDS011;8977;50.902;4.314;2022-12-10T06:25:03;51.57;;;25.57;;
17714;SDS011;8977;50.902;4.314;2022-12-10T06:27:31;47.73;;;23.83;;
17714;SDS011;8977;50.902;4.314;2022-12-10T06:29:58;50.03;;;22.00;;
17714;SDS011;8977;50.902;4.314;2022-12-10T06:32:25;45.53;;;22.80;;
17714;SDS011;8977;50.902;4.314;2022-12-10T06:34:52;44.80;;;22.70;;
17714;SDS011;8977;50.902;4.314;2022-12-10T06:37:21;41.63;;;22.50;;
17714;SDS011;8977;50.902;4.314;2022-12-10T06:39:49;43.80;;;22.93;;
17714;SDS011;8977;50.902;4.314;2022-12-10T06:42:20;45.67;;;22.67;;
17714;SDS011;8977;50.902;4.314;2022-12-10T06:44:47;44.20;;;23.10;;
17714;SDS011;8977;50.902;4.314;2022-12-10T06:47:14;44.67;;;22.40;;
17714;SDS011;8977;50.902;4.314;2022-12-10T06:49:41;43.43;;;21.97;;
17714;SDS011;8977;50.902;4.314;2022-12-10T06:52:08;38.23;;;20.50;;
17714;SDS011;8977;50.902;4.314;2022-12-10T06:54:37;40.67;;;22.33;;
17714;SDS011;8977;50.902;4.314;2022-12-10T06:57:04;39.80;;;20.10;;
17714;SDS011;8977;50.902;4.314;2022-12-10T06:59:31;40.40;;;21.27;;
17714;SDS011;8977;50.902;4.314;2022-12-10T07:01:58;41.13;;;21.17;;
17714;SDS011;8977;50.902;4.314;2022-12-10T07:04:27;42.77;;;22.23;;
17714;SDS011;8977;50.902;4.314;2022-12-10T07:06:56;44.13;;;22.50;;
17714;SDS011;8977;50.902;4.314;2022-12-10T07:09:23;47.20;;;23.37;;
17714;SDS011;8977;50.902;4.314;2022-12-10T07:11:52;44.57;;;21.33;;
17714;SDS011;8977;50.902;4.314;2022-12-10T07:14:21;42.30;;;21.97;;
17714;SDS011;8977;50.902;4.314;2022-12-10T07:16:48;44.07;;;22.53;;
17714;SDS011;8977;50.902;4.314;2022-12-10T07:19:15;40.93;;;21.67;;
17714;SDS011;8977;50.902;4.314;2022-12-10T07:21:42;45.53;;;22.43;;
17714;SDS011;8977;50.902;4.314;2022-12-10T07:24:12;45.37;;;23.73;;
17714;SDS011;8977;50.902;4.314;2022-12-10T07:26:41;44.87;;;21.97;;
17714;SDS011;8977;50.902;4.314;2022-12-10T07:29:13;44.67;;;22.33;;
17714;SDS011;8977;50.902;4.314;2022-12-10T07:31:41;43.67;;;22.20;;
17714;SDS011;8977;50.902;4.314;2022-12-10T07:34:08;45.87;;;24.33;;
17714;SDS011;8977;50.902;4.314;2022-12-10T07:36:36;44.90;;;22.07;;
17714;SDS011;8977;50.902;4.314;2022-12-10T07:39:06;42.83;;;22.33;;
17714;SDS011;8977;50.902;4.314;2022-12-10T07:41:35;41.67;;;22.63;;
17714;SDS011;8977;50.902;4.314;2022-12-10T07:44:02;44.40;;;22.90;;
17714;SDS011;8977;50.902;4.314;2022-12-10T07:46:35;44.53;;;23.53;;
17714;SDS011;8977;50.902;4.314;2022-12-10T07:49:02;45.30;;;23.03;;
17714;SDS011;8977;50.902;4.314;2022-12-10T07:51:29;50.80;;;24.93;;
17714;SDS011;8977;50.902;4.314;2022-12-10T07:53:56;53.93;;;24.23;;
17714;SDS011;8977;50.902;4.314;2022-12-10T07:56:23;49.40;;;24.00;;
17714;SDS011;8977;50.902;4.314;2022-12-10T07:58:50;46.57;;;23.33;;
17714;SDS011;8977;50.902;4.314;2022-12-10T08:01:20;43.60;;;21.53;;
17714;SDS011;8977;50.902;4.314;2022-12-10T08:03:50;43.97;;;22.43;;
17714;SDS011;8977;50.902;4.314;2022-12-10T08:06:17;41.43;;;21.30;;
17714;SDS011;8977;50.902;4.314;2022-12-10T08:08:46;46.93;;;21.73;;
17714;SDS011;8977;50.902;4.314;2022-12-10T08:11:14;51.17;;;23.90;;
17714;SDS011;8977;50.902;4.314;2022-12-10T08:13:43;48.50;;;23.67;;
17714;SDS011;8977;50.902;4.314;2022-12-10T08:16:11;47.40;;;22.93;;
17714;SDS011;8977;50.902;4.314;2022-12-10T08:18:39;46.10;;;22.93;;
17714;SDS011;8977;50.902;4.314;2022-12-10T08:21:11;43.67;;;21.07;;
17714;SDS011;8977;50.902;4.314;2022-12-10T08:23:40;47.67;;;22.67;;
17714;SDS011;8977;50.902;4.314;2022-12-10T08:26:08;40.30;;;22.10;;
17714;SDS011;8977;50.902;4.314;2022-12-10T08:28:36;45.07;;;23.63;;
17714;SDS011;8977;50.902;4.314;2022-12-10T08:31:03;45.27;;;23.53;;
17714;SDS011;8977;50.902;4.314;2022-12-10T08:33:33;44.07;;;22.03;;
17714;SDS011;8977;50.902;4.314;2022-12-10T08:36:01;46.40;;;22.57;;
17714;SDS011;8977;50.902;4.314;2022-12-10T08:38:30;47.57;;;22.03;;
17714;SDS011;8977;50.902;4.314;2022-12-10T08:40:57;39.30;;;21.20;;
17714;SDS011;8977;50.902;4.314;2022-12-10T08:43:24;45.57;;;21.73;;
17714;SDS011;8977;50.902;4.314;2022-12-10T08:45:53;44.07;;;21.47;;
17714;SDS011;8977;50.902;4.314;2022-12-10T08:48:20;42.93;;;21.13;;
17714;SDS011;8977;50.902;4.314;2022-12-10T08:50:48;43.73;;;22.07;;
17714;SDS011;8977;50.902;4.314;2022-12-10T08:53:15;37.83;;;19.40;;
17714;SDS011;8977;50.902;4.314;2022-12-10T08:55:43;40.67;;;20.63;;
17714;SDS011;8977;50.902;4.314;2022-12-10T08:58:10;40.97;;;21.20;;
17714;SDS011;8977;50.902;4.314;2022-12-10T09:00:39;44.17;;;21.57;;
17714;SDS011;8977;50.902;4.314;2022-12-10T09:03:07;43.23;;;22.27;;
17714;SDS011;8977;50.902;4.314;2022-12-10T09:05:37;42.70;;;21.20;;
17714;SDS011;8977;50.902;4.314;2022-12-10T09:08:04;41.57;;;21.60;;
17714;SDS011;8977;50.902;4.314;2022-12-10T09:10:31;41.97;;;21.27;;
17714;SDS011;8977;50.902;4.314;2022-12-10T09:12:59;39.13;;;20.37;;
17714;SDS011;8977;50.902;4.314;2022-12-10T09:15:26;41.20;;;20.70;;
17714;SDS011;8977;50.902;4.314;2022-12-10T09:17:54;38.67;;;20.77;;
17714;SDS011;8977;50.902;4.314;2022-12-10T09:20:21;39.03;;;19.33;;
17714;SDS011;8977;50.902;4.314;2022-12-10T09:22:48;39.30;;;19.67;;
17714;SDS011;8977;50.902;4.314;2022-12-10T09:25:16;39.77;;;20.30;;
17714;SDS011;8977;50.902;4.314;2022-12-10T09:27:46;42.73;;;20.83;;
17714;SDS011;8977;50.902;4.314;2022-12-10T09:30:16;40.07;;;19.37;;
17714;SDS011;8977;50.902;4.314;2022-12-10T09:32:43;39.60;;;19.00;;
17714;SDS011;8977;50.902;4.314;2022-12-10T09:35:10;37.33;;;18.90;;
17714;SDS011;8977;50.902;4.314;2022-12-10T09:37:37;40.13;;;19.87;;
17714;SDS011;8977;50.902;4.314;2022-12-10T09:40:04;39.97;;;19.43;;
17714;SDS011;8977;50.902;4.314;2022-12-10T09:42:34;37.57;;;19.10;;
17714;SDS011;8977;50.902;4.314;2022-12-10T09:45:11;41.63;;;19.97;;
17714;SDS011;8977;50.902;4.314;2022-12-10T09:47:46;39.67;;;19.77;;
17714;SDS011;8977;50.902;4.314;2022-12-10T09:50:26;38.33;;;19.10;;
17714;SDS011;8977;50.902;4.314;2022-12-10T09:52:56;33.27;;;18.80;;
17714;SDS011;8977;50.902;4.314;2022-12-10T09:55:28;36.20;;;19.07;;
17714;SDS011;8977;50.902;4.314;2022-12-10T09:58:00;40.13;;;19.10;;
17714;SDS011;8977;50.902;4.314;2022-12-10T10:00:32;36.00;;;19.27;;
17714;SDS011;8977;50.902;4.314;2022-12-10T10:03:01;34.53;;;18.73;;
17714;SDS011;8977;50.902;4.314;2022-12-10T10:05:29;39.57;;;19.13;;
17714;SDS011;8977;50.902;4.314;2022-12-10T10:08:01;37.10;;;18.60;;
17714;SDS011;8977;50.902;4.314;2022-12-10T10:10:34;39.93;;;19.53;;
17714;SDS011;8977;50.902;4.314;2022-12-10T10:13:10;34.93;;;17.87;;
17714;SDS011;8977;50.902;4.314;2022-12-10T10:15:44;35.73;;;17.77;;
17714;SDS011;8977;50.902;4.314;2022-12-10T10:18:13;42.60;;;20.63;;
17714;SDS011;8977;50.902;4.314;2022-12-10T10:20:43;36.80;;;19.10;;
17714;SDS011;8977;50.902;4.314;2022-12-10T10:23:12;41.00;;;18.83;;
17714;SDS011;8977;50.902;4.314;2022-12-10T10:25:41;37.30;;;19.40;;
17714;SDS011;8977;50.902;4.314;2022-12-10T10:28:09;37.33;;;19.17;;
17714;SDS011;8977;50.902;4.314;2022-12-10T10:30:39;39.83;;;18.67;;
17714;SDS011;8977;50.902;4.314;2022-12-10T10:33:12;40.73;;;19.17;;
17714;SDS011;8977;50.902;4.314;2022-12-10T10:35:42;38.47;;;19.77;;
17714;SDS011;8977;50.902;4.314;2022-12-10T10:38:16;38.13;;;19.97;;
17714;SDS011;8977;50.902;4.314;2022-12-10T10:40:46;37.33;;;19.70;;
17714;SDS011;8977;50.902;4.314;2022-12-10T10:43:18;39.93;;;19.53;;
17714;SDS011;8977;50.902;4.314;2022-12-10T10:45:51;37.07;;;19.17;;
17714;SDS011;8977;50.902;4.314;2022-12-10T10:48:23;36.63;;;18.97;;
17714;SDS011;8977;50.902;4.314;2022-12-10T10:50:52;40.57;;;19.57;;
17714;SDS011;8977;50.902;4.314;2022-12-10T10:53:24;45.17;;;20.83;;
17714;SDS011;8977;50.902;4.314;2022-12-10T10:55:54;47.13;;;22.57;;
17714;SDS011;8977;50.902;4.314;2022-12-10T10:58:25;47.57;;;22.80;;
17714;SDS011;8977;50.902;4.314;2022-12-10T11:00:55;42.87;;;20.93;;
17714;SDS011;8977;50.902;4.314;2022-12-10T11:03:26;40.63;;;19.60;;
17714;SDS011;8977;50.902;4.314;2022-12-10T11:05:57;39.03;;;18.87;;
17714;SDS011;8977;50.902;4.314;2022-12-10T11:08:29;37.50;;;18.80;;
17714;SDS011;8977;50.902;4.314;2022-12-10T11:10:58;32.90;;;16.93;;
17714;SDS011;8977;50.902;4.314;2022-12-10T11:13:29;37.83;;;18.50;;
17714;SDS011;8977;50.902;4.314;2022-12-10T11:16:01;39.00;;;18.37;;
17714;SDS011;8977;50.902;4.314;2022-12-10T11:18:41;36.63;;;18.40;;
17714;SDS011;8977;50.902;4.314;2022-12-10T11:21:19;36.43;;;18.57;;
17714;SDS011;8977;50.902;4.314;2022-12-10T11:23:48;38.80;;;18.30;;
17714;SDS011;8977;50.902;4.314;2022-12-10T11:29:19;32.90;;;16.17;;
17714;SDS011;8977;50.902;4.314;2022-12-10T11:32:03;34.33;;;16.53;;
17714;SDS011;8977;50.902;4.314;2022-12-10T11:34:44;36.30;;;17.80;;
17714;SDS011;8977;50.902;4.314;2022-12-10T11:37:25;35.73;;;18.10;;
17714;SDS011;8977;50.902;4.314;2022-12-10T11:40:02;38.70;;;19.90;;
17714;SDS011;8977;50.902;4.314;2022-12-10T11:42:43;38.33;;;19.17;;
17714;SDS011;8977;50.902;4.314;2022-12-10T11:45:20;36.40;;;18.10;;
17714;SDS011;8977;50.902;4.314;2022-12-10T11:47:56;33.37;;;16.57;;
17714;SDS011;8977;50.902;4.314;2022-12-10T11:50:36;33.57;;;17.37;;
17714;SDS011;8977;50.902;4.314;2022-12-10T11:53:12;36.50;;;17.87;;
17714;SDS011;8977;50.902;4.314;2022-12-10T11:55:53;35.77;;;18.87;;
17714;SDS011;8977;50.902;4.314;2022-12-10T11:58:33;36.10;;;17.87;;
17714;SDS011;8977;50.902;4.314;2022-12-10T12:01:11;32.77;;;16.73;;
17714;SDS011;8977;50.902;4.314;2022-12-10T12:06:52;36.30;;;18.60;;
17714;SDS011;8977;50.902;4.314;2022-12-10T12:09:28;37.03;;;18.37;;
17714;SDS011;8977;50.902;4.314;2022-12-10T12:12:08;38.57;;;17.70;;
17714;SDS011;8977;50.902;4.314;2022-12-10T12:14:50;33.07;;;16.30;;
17714;SDS011;8977;50.902;4.314;2022-12-10T12:17:21;34.00;;;17.10;;
17714;SDS011;8977;50.902;4.314;2022-12-10T12:19:53;32.33;;;15.87;;
17714;SDS011;8977;50.902;4.314;2022-12-10T12:22:25;35.63;;;17.93;;
17714;SDS011;8977;50.902;4.314;2022-12-10T12:24:54;32.37;;;16.63;;
17714;SDS011;8977;50.902;4.314;2022-12-10T12:27:27;32.33;;;16.77;;
17714;SDS011;8977;50.902;4.314;2022-12-10T12:30:00;32.07;;;16.87;;
17714;SDS011;8977;50.902;4.314;2022-12-10T12:32:39;34.90;;;18.27;;
17714;SDS011;8977;50.902;4.314;2022-12-10T12:35:14;31.53;;;15.77;;
17714;SDS011;8977;50.902;4.314;2022-12-10T12:37:48;31.53;;;16.57;;
17714;SDS011;8977;50.902;4.314;2022-12-10T12:40:25;32.37;;;15.43;;
17714;SDS011;8977;50.902;4.314;2022-12-10T12:42:56;34.20;;;16.97;;
17714;SDS011;8977;50.902;4.314;2022-12-10T12:45:30;32.07;;;16.67;;
17714;SDS011;8977;50.902;4.314;2022-12-10T12:48:06;34.00;;;16.93;;
17714;SDS011;8977;50.902;4.314;2022-12-10T12:50:43;30.53;;;15.37;;
17714;SDS011;8977;50.902;4.314;2022-12-10T12:53:16;30.77;;;17.23;;
17714;SDS011;8977;50.902;4.314;2022-12-10T12:55:48;35.00;;;17.77;;
17714;SDS011;8977;50.902;4.314;2022-12-10T12:58:25;32.97;;;17.47;;
17714;SDS011;8977;50.902;4.314;2022-12-10T13:01:00;30.90;;;16.43;;
17714;SDS011;8977;50.902;4.314;2022-12-10T13:03:38;32.17;;;16.10;;
17714;SDS011;8977;50.902;4.314;2022-12-10T13:06:14;27.80;;;15.97;;
17714;SDS011;8977;50.902;4.314;2022-12-10T13:08:44;30.90;;;17.17;;
17714;SDS011;8977;50.902;4.314;2022-12-10T13:11:19;31.83;;;16.37;;
17714;SDS011;8977;50.902;4.314;2022-12-10T13:17:00;32.73;;;16.37;;
17714;SDS011;8977;50.902;4.314;2022-12-10T13:19:50;33.10;;;15.87;;
17714;SDS011;8977;50.902;4.314;2022-12-10T13:25:12;30.83;;;15.50;;
17714;SDS011;8977;50.902;4.314;2022-12-10T13:27:53;32.67;;;16.20;;
17714;SDS011;8977;50.902;4.314;2022-12-10T13:30:25;34.90;;;16.50;;
17714;SDS011;8977;50.902;4.314;2022-12-10T13:35:51;32.40;;;15.30;;
17714;SDS011;8977;50.902;4.314;2022-12-10T13:38:23;29.50;;;15.67;;
17714;SDS011;8977;50.902;4.314;2022-12-10T13:40:59;30.50;;;16.90;;
17714;SDS011;8977;50.902;4.314;2022-12-10T13:43:51;28.30;;;14.83;;
17714;SDS011;8977;50.902;4.314;2022-12-10T13:46:50;29.90;;;15.67;;
17714;SDS011;8977;50.902;4.314;2022-12-10T13:49:20;30.13;;;15.03;;
17714;SDS011;8977;50.902;4.314;2022-12-10T13:51:52;26.97;;;15.07;;
17714;SDS011;8977;50.902;4.314;2022-12-10T13:54:29;30.73;;;14.87;;
17714;SDS011;8977;50.902;4.314;2022-12-10T14:00:23;26.37;;;13.60;;
17714;SDS011;8977;50.902;4.314;2022-12-10T14:06:12;31.17;;;15.23;;
17714;SDS011;8977;50.902;4.314;2022-12-10T14:08:42;28.10;;;15.60;;
17714;SDS011;8977;50.902;4.314;2022-12-10T14:11:24;34.33;;;15.53;;
17714;SDS011;8977;50.902;4.314;2022-12-10T14:14:02;32.57;;;15.50;;
17714;SDS011;8977;50.902;4.314;2022-12-10T14:16:32;32.47;;;15.97;;
17714;SDS011;8977;50.902;4.314;2022-12-10T14:19:01;26.57;;;14.13;;
17714;SDS011;8977;50.902;4.314;2022-12-10T14:21:33;29.50;;;14.10;;
17714;SDS011;8977;50.902;4.314;2022-12-10T14:24:01;31.13;;;16.07;;
17714;SDS011;8977;50.902;4.314;2022-12-10T14:26:29;32.50;;;15.60;;
17714;SDS011;8977;50.902;4.314;2022-12-10T14:29:01;34.03;;;16.53;;
17714;SDS011;8977;50.902;4.314;2022-12-10T14:31:48;29.77;;;13.47;;
17714;SDS011;8977;50.902;4.314;2022-12-10T14:34:17;35.63;;;15.50;;
17714;SDS011;8977;50.902;4.314;2022-12-10T14:36:50;36.30;;;16.07;;
17714;SDS011;8977;50.902;4.314;2022-12-10T14:39:21;29.97;;;14.97;;
17714;SDS011;8977;50.902;4.314;2022-12-10T14:41:51;30.93;;;15.17;;
17714;SDS011;8977;50.902;4.314;2022-12-10T14:44:23;34.20;;;16.90;;
17714;SDS011;8977;50.902;4.314;2022-12-10T14:46:50;34.10;;;16.07;;
17714;SDS011;8977;50.902;4.314;2022-12-10T14:49:19;33.00;;;15.67;;
17714;SDS011;8977;50.902;4.314;2022-12-10T14:51:48;31.60;;;16.07;;
17714;SDS011;8977;50.902;4.314;2022-12-10T14:54:25;36.03;;;16.80;;
17714;SDS011;8977;50.902;4.314;2022-12-10T14:56:54;34.37;;;15.50;;
17714;SDS011;8977;50.902;4.314;2022-12-10T14:59:24;33.90;;;15.63;;
17714;SDS011;8977;50.902;4.314;2022-12-10T15:01:56;35.17;;;16.23;;
17714;SDS011;8977;50.902;4.314;2022-12-10T15:04:25;34.57;;;15.77;;
17714;SDS011;8977;50.902;4.314;2022-12-10T15:07:05;35.40;;;16.33;;
17714;SDS011;8977;50.902;4.314;2022-12-10T15:09:37;32.67;;;16.43;;
17714;SDS011;8977;50.902;4.314;2022-12-10T15:12:04;37.03;;;16.50;;
17714;SDS011;8977;50.902;4.314;2022-12-10T15:14:33;34.97;;;16.77;;